sensor_id;sensor_type;location;lat;lon;timestamp;pressure;altitude;pressure_sealevel;temperature;humidity
70046;BME280;57385;41.832;23.494;2022-10-16T00:00:07;91551.59;;;8.77;68.50
70046;BME280;57385;41.832;23.494;2022-10-16T00:00:26;91567.72;;;8.84;69.08
70046;BME280;57385;41.832;23.494;2022-10-16T00:00:46;91553.38;;;8.76;69.16
70046;BME280;57385;41.832;23.494;2022-10-16T00:01:08;91559.66;;;8.80;68.66
70046;BME280;57385;41.832;23.494;2022-10-16T00:01:29;91558.09;;;8.79;68.70
70046;BME280;57385;41.832;23.494;2022-10-16T00:01:49;91556.53;;;8.78;68.59
70046;BME280;57385;41.832;23.494;2022-10-16T00:02:08;91572.44;;;8.87;68.77
70046;BME280;57385;41.832;23.494;2022-10-16T00:02:28;91570.09;;;8.85;68.74
70046;BME280;57385;41.832;23.494;2022-10-16T00:02:47;91554.34;;;8.75;68.57
70046;BME280;57385;41.832;23.494;2022-10-16T00:03:08;91576.78;;;8.86;69.03
70046;BME280;57385;41.832;23.494;2022-10-16T00:03:28;91547.66;;;8.74;68.35
70046;BME280;57385;41.832;23.494;2022-10-16T00:03:48;91556.72;;;8.77;69.04
70046;BME280;57385;41.832;23.494;2022-10-16T00:04:08;91568.91;;;8.81;69.03
70046;BME280;57385;41.832;23.494;2022-10-16T00:04:27;91551.59;;;8.77;68.92
70046;BME280;57385;41.832;23.494;2022-10-16T00:04:47;91559.09;;;8.78;68.76
70046;BME280;57385;41.832;23.494;2022-10-16T00:05:06;91557.53;;;8.77;68.82
70046;BME280;57385;41.832;23.494;2022-10-16T00:05:26;91572.06;;;8.83;68.94
70046;BME280;57385;41.832;23.494;2022-10-16T00:05:48;91560.47;;;8.81;69.02
70046;BME280;57385;41.832;23.494;2022-10-16T00:06:09;91569.09;;;8.86;68.83
70046;BME280;57385;41.832;23.494;2022-10-16T00:06:29;91563.81;;;8.81;68.93
70046;BME280;57385;41.832;23.494;2022-10-16T00:06:48;91564.00;;;8.80;68.97
70046;BME280;57385;41.832;23.494;2022-10-16T00:07:08;91559.66;;;8.80;69.14
70046;BME280;57385;41.832;23.494;2022-10-16T00:07:27;91564.78;;;8.80;69.61
70046;BME280;57385;41.832;23.494;2022-10-16T00:07:47;91567.34;;;8.80;69.09
70046;BME280;57385;41.832;23.494;2022-10-16T00:08:07;91569.91;;;8.80;68.67
70046;BME280;57385;41.832;23.494;2022-10-16T00:08:27;91573.63;;;8.84;68.97
70046;BME280;57385;41.832;23.494;2022-10-16T00:08:47;91561.03;;;8.76;68.63
70046;BME280;57385;41.832;23.494;2022-10-16T00:09:07;91573.03;;;8.82;68.55
70046;BME280;57385;41.832;23.494;2022-10-16T00:09:26;91561.03;;;8.76;68.77
70046;BME280;57385;41.832;23.494;2022-10-16T00:09:45;91558.09;;;8.73;68.77
70046;BME280;57385;41.832;23.494;2022-10-16T00:10:05;91570.88;;;8.79;68.84
70046;BME280;57385;41.832;23.494;2022-10-16T00:10:25;91561.63;;;8.72;69.14
70046;BME280;57385;41.832;23.494;2022-10-16T00:10:44;91582.28;;;8.83;68.81
70046;BME280;57385;41.832;23.494;2022-10-16T00:11:12;91575.03;;;8.80;68.97
70046;BME280;57385;41.832;23.494;2022-10-16T00:11:34;91572.47;;;8.80;69.02
70046;BME280;57385;41.832;23.494;2022-10-16T00:11:54;91582.69;;;8.80;68.55
70046;BME280;57385;41.832;23.494;2022-10-16T00:12:13;91580.72;;;8.82;68.73
70046;BME280;57385;41.832;23.494;2022-10-16T00:12:33;91577.16;;;8.77;68.55
70046;BME280;57385;41.832;23.494;2022-10-16T00:12:52;91565.75;;;8.73;68.25
70046;BME280;57385;41.832;23.494;2022-10-16T00:13:12;91571.25;;;8.76;68.56
70046;BME280;57385;41.832;23.494;2022-10-16T00:13:33;91566.75;;;8.72;68.49
70046;BME280;57385;41.832;23.494;2022-10-16T00:13:58;91576.78;;;8.80;68.35
70046;BME280;57385;41.832;23.494;2022-10-16T00:14:17;91579.91;;;8.75;68.32
70046;BME280;57385;41.832;23.494;2022-10-16T00:14:37;91578.94;;;8.76;68.25
70046;BME280;57385;41.832;23.494;2022-10-16T00:14:56;91568.91;;;8.75;68.53
70046;BME280;57385;41.832;23.494;2022-10-16T00:15:16;91586.22;;;8.79;68.35
70046;BME280;57385;41.832;23.494;2022-10-16T00:15:36;91575.78;;;8.74;68.61
70046;BME280;57385;41.832;23.494;2022-10-16T00:15:57;91577.16;;;8.77;68.24
70046;BME280;57385;41.832;23.494;2022-10-16T00:16:17;91571.66;;;8.73;68.42
70046;BME280;57385;41.832;23.494;2022-10-16T00:16:37;91581.31;;;8.78;68.33
70046;BME280;57385;41.832;23.494;2022-10-16T00:16:57;91574.22;;;8.73;68.72
70046;BME280;57385;41.832;23.494;2022-10-16T00:17:19;91579.13;;;8.75;68.44
70046;BME280;57385;41.832;23.494;2022-10-16T00:17:38;91578.56;;;8.73;68.75
70046;BME280;57385;41.832;23.494;2022-10-16T00:17:57;91578.34;;;8.74;68.53
70046;BME280;57385;41.832;23.494;2022-10-16T00:18:17;91576.00;;;8.73;68.38
70046;BME280;57385;41.832;23.494;2022-10-16T00:18:37;91582.28;;;8.77;68.95
70046;BME280;57385;41.832;23.494;2022-10-16T00:18:56;91572.28;;;8.69;68.64
70046;BME280;57385;41.832;23.494;2022-10-16T00:19:16;91568.72;;;8.70;69.10
70046;BME280;57385;41.832;23.494;2022-10-16T00:19:35;91578.16;;;8.69;68.79
70046;BME280;57385;41.832;23.494;2022-10-16T00:19:55;91579.94;;;8.69;68.82
70046;BME280;57385;41.832;23.494;2022-10-16T00:20:14;91579.75;;;8.70;68.68
70046;BME280;57385;41.832;23.494;2022-10-16T00:20:34;91575.81;;;8.68;68.93
70046;BME280;57385;41.832;23.494;2022-10-16T00:20:54;91590.94;;;8.76;69.20
70046;BME280;57385;41.832;23.494;2022-10-16T00:21:20;91576.59;;;8.68;69.13
70046;BME280;57385;41.832;23.494;2022-10-16T00:21:39;91567.16;;;8.62;69.14
70046;BME280;57385;41.832;23.494;2022-10-16T00:21:59;91583.06;;;8.71;68.75
70046;BME280;57385;41.832;23.494;2022-10-16T00:22:18;91579.16;;;8.68;68.88
70046;BME280;57385;41.832;23.494;2022-10-16T00:22:37;91585.63;;;8.71;69.20
70046;BME280;57385;41.832;23.494;2022-10-16T00:22:57;91580.72;;;8.69;69.10
70046;BME280;57385;41.832;23.494;2022-10-16T00:23:16;91569.31;;;8.65;68.88
70046;BME280;57385;41.832;23.494;2022-10-16T00:23:36;91582.88;;;8.72;68.88
70046;BME280;57385;41.832;23.494;2022-10-16T00:23:59;91579.34;;;8.73;68.74
70046;BME280;57385;41.832;23.494;2022-10-16T00:24:19;91570.47;;;8.63;69.40
70046;BME280;57385;41.832;23.494;2022-10-16T00:24:38;91569.31;;;8.65;68.97
70046;BME280;57385;41.832;23.494;2022-10-16T00:24:57;91577.97;;;8.71;69.27
70046;BME280;57385;41.832;23.494;2022-10-16T00:25:17;91575.81;;;8.68;69.29
70046;BME280;57385;41.832;23.494;2022-10-16T00:25:36;91567.75;;;8.64;68.89
70046;BME280;57385;41.832;23.494;2022-10-16T00:25:58;91591.34;;;8.73;69.46
70046;BME280;57385;41.832;23.494;2022-10-16T00:26:18;91588.00;;;8.72;69.21
70046;BME280;57385;41.832;23.494;2022-10-16T00:26:38;91579.16;;;8.68;69.07
70046;BME280;57385;41.832;23.494;2022-10-16T00:26:58;91572.66;;;8.66;68.70
70046;BME280;57385;41.832;23.494;2022-10-16T00:27:17;91583.06;;;8.71;69.01
70046;BME280;57385;41.832;23.494;2022-10-16T00:27:37;91569.31;;;8.65;69.03
70046;BME280;57385;41.832;23.494;2022-10-16T00:27:56;91584.44;;;8.73;69.34
70046;BME280;57385;41.832;23.494;2022-10-16T00:28:15;91568.72;;;8.63;69.24
70046;BME280;57385;41.832;23.494;2022-10-16T00:28:35;91579.75;;;8.70;69.17
70046;BME280;57385;41.832;23.494;2022-10-16T00:28:55;91576.59;;;8.68;69.51
70046;BME280;57385;41.832;23.494;2022-10-16T00:29:14;91579.16;;;8.68;68.80
70046;BME280;57385;41.832;23.494;2022-10-16T00:29:34;91571.88;;;8.65;68.69
70046;BME280;57385;41.832;23.494;2022-10-16T00:29:53;91575.03;;;8.67;69.45
70046;BME280;57385;41.832;23.494;2022-10-16T00:30:13;91570.31;;;8.64;68.95
70046;BME280;57385;41.832;23.494;2022-10-16T00:30:37;91571.47;;;8.68;68.93
70046;BME280;57385;41.832;23.494;2022-10-16T00:30:57;91575.59;;;8.69;69.15
70046;BME280;57385;41.832;23.494;2022-10-16T00:31:20;91562.44;;;8.59;69.32
70046;BME280;57385;41.832;23.494;2022-10-16T00:31:39;91559.88;;;8.59;68.84
70046;BME280;57385;41.832;23.494;2022-10-16T00:31:59;91578.16;;;8.69;69.22
70046;BME280;57385;41.832;23.494;2022-10-16T00:32:21;91577.19;;;8.70;69.13
70046;BME280;57385;41.832;23.494;2022-10-16T00:32:40;91575.03;;;8.67;68.67
70046;BME280;57385;41.832;23.494;2022-10-16T00:33:00;91558.31;;;8.58;68.74
70046;BME280;57385;41.832;23.494;2022-10-16T00:33:20;91570.31;;;8.64;68.94
70046;BME280;57385;41.832;23.494;2022-10-16T00:33:40;91576.59;;;8.68;69.27
70046;BME280;57385;41.832;23.494;2022-10-16T00:33:59;91557.53;;;8.57;68.94
70046;BME280;57385;41.832;23.494;2022-10-16T00:34:19;91557.31;;;8.59;69.35
70046;BME280;57385;41.832;23.494;2022-10-16T00:34:38;91554.75;;;8.59;69.49
70046;BME280;57385;41.832;23.494;2022-10-16T00:34:57;91566.56;;;8.67;69.41
70046;BME280;57385;41.832;23.494;2022-10-16T00:35:19;91567.75;;;8.64;69.35
70046;BME280;57385;41.832;23.494;2022-10-16T00:35:38;91571.47;;;8.68;69.06
70046;BME280;57385;41.832;23.494;2022-10-16T00:35:59;91551.41;;;8.58;69.00
70046;BME280;57385;41.832;23.494;2022-10-16T00:36:21;91570.91;;;8.66;69.14
70046;BME280;57385;41.832;23.494;2022-10-16T00:36:41;91575.03;;;8.67;69.19
70046;BME280;57385;41.832;23.494;2022-10-16T00:37:00;91566.34;;;8.61;68.94
70046;BME280;57385;41.832;23.494;2022-10-16T00:37:20;91572.47;;;8.67;69.28
70046;BME280;57385;41.832;23.494;2022-10-16T00:37:40;91561.44;;;8.60;69.09
70046;BME280;57385;41.832;23.494;2022-10-16T00:37:59;91563.00;;;8.61;69.12
70046;BME280;57385;41.832;23.494;2022-10-16T00:38:18;91576.00;;;8.66;68.81
70046;BME280;57385;41.832;23.494;2022-10-16T00:38:38;91565.00;;;8.59;68.91
70046;BME280;57385;41.832;23.494;2022-10-16T00:38:58;91569.13;;;8.60;68.95
70046;BME280;57385;41.832;23.494;2022-10-16T00:39:17;91564.19;;;8.58;68.78
70046;BME280;57385;41.832;23.494;2022-10-16T00:39:40;91564.41;;;8.57;69.31
70046;BME280;57385;41.832;23.494;2022-10-16T00:39:59;91564.59;;;8.55;68.89
70046;BME280;57385;41.832;23.494;2022-10-16T00:40:18;91569.91;;;8.60;69.07
70046;BME280;57385;41.832;23.494;2022-10-16T00:40:38;91566.97;;;8.57;69.03
70046;BME280;57385;41.832;23.494;2022-10-16T00:40:58;91570.31;;;8.64;68.78
70046;BME280;57385;41.832;23.494;2022-10-16T00:41:18;91574.22;;;8.60;69.25
70046;BME280;57385;41.832;23.494;2022-10-16T00:41:38;91575.78;;;8.61;68.94
70046;BME280;57385;41.832;23.494;2022-10-16T00:41:57;91569.91;;;8.60;69.38
70046;BME280;57385;41.832;23.494;2022-10-16T00:42:18;91571.47;;;8.61;69.27
70046;BME280;57385;41.832;23.494;2022-10-16T00:42:38;91562.03;;;8.55;69.28
70046;BME280;57385;41.832;23.494;2022-10-16T00:42:58;91567.75;;;8.57;69.00
70046;BME280;57385;41.832;23.494;2022-10-16T00:43:37;91576.38;;;8.63;68.90
70046;BME280;57385;41.832;23.494;2022-10-16T00:43:59;91580.72;;;8.63;69.19
70046;BME280;57385;41.832;23.494;2022-10-16T00:44:42;91580.72;;;8.63;68.97
70046;BME280;57385;41.832;23.494;2022-10-16T00:45:02;91579.94;;;8.62;68.75
70046;BME280;57385;41.832;23.494;2022-10-16T00:45:21;91570.09;;;8.59;68.98
70046;BME280;57385;41.832;23.494;2022-10-16T00:45:41;91576.00;;;8.59;68.82
70046;BME280;57385;41.832;23.494;2022-10-16T00:46:02;91573.84;;;8.56;69.13
70046;BME280;57385;41.832;23.494;2022-10-16T00:46:23;91584.44;;;8.60;69.04
70046;BME280;57385;41.832;23.494;2022-10-16T00:46:43;91570.50;;;8.56;68.96
70046;BME280;57385;41.832;23.494;2022-10-16T00:47:02;91582.50;;;8.55;68.75
70046;BME280;57385;41.832;23.494;2022-10-16T00:47:49;91583.88;;;8.58;69.20
70046;BME280;57385;41.832;23.494;2022-10-16T00:48:12;91577.97;;;8.57;68.71
70046;BME280;57385;41.832;23.494;2022-10-16T00:48:32;91574.81;;;8.55;68.95
70046;BME280;57385;41.832;23.494;2022-10-16T00:49:18;91572.09;;;8.50;68.93
70046;BME280;57385;41.832;23.494;2022-10-16T00:49:39;91579.94;;;8.55;68.92
70046;BME280;57385;41.832;23.494;2022-10-16T00:50:08;91576.22;;;8.51;68.80
70046;BME280;57385;41.832;23.494;2022-10-16T00:50:33;91572.25;;;8.49;68.93
70046;BME280;57385;41.832;23.494;2022-10-16T00:50:56;91580.13;;;8.54;68.60
70046;BME280;57385;41.832;23.494;2022-10-16T00:51:19;91572.09;;;8.50;68.73
70046;BME280;57385;41.832;23.494;2022-10-16T00:51:53;91574.66;;;8.50;69.06
70046;BME280;57385;41.832;23.494;2022-10-16T00:52:13;91583.88;;;8.51;68.85
70046;BME280;57385;41.832;23.494;2022-10-16T00:52:33;91560.47;;;8.41;69.00
70046;BME280;57385;41.832;23.494;2022-10-16T00:52:54;91571.09;;;8.51;69.09
70046;BME280;57385;41.832;23.494;2022-10-16T00:53:14;91571.31;;;8.50;68.98
70046;BME280;57385;41.832;23.494;2022-10-16T00:53:34;91573.84;;;8.50;69.29
70046;BME280;57385;41.832;23.494;2022-10-16T00:53:55;91570.88;;;8.46;69.67
70046;BME280;57385;41.832;23.494;2022-10-16T00:54:19;91563.03;;;8.41;69.17
70046;BME280;57385;41.832;23.494;2022-10-16T00:54:42;91574.03;;;8.48;69.38
70046;BME280;57385;41.832;23.494;2022-10-16T00:55:03;91582.91;;;8.52;69.33
70046;BME280;57385;41.832;23.494;2022-10-16T00:55:24;91587.03;;;8.53;69.17
70046;BME280;57385;41.832;23.494;2022-10-16T00:55:44;91575.41;;;8.44;69.11
70046;BME280;57385;41.832;23.494;2022-10-16T00:56:04;91581.91;;;8.53;69.06
70046;BME280;57385;41.832;23.494;2022-10-16T00:56:23;91574.63;;;8.44;68.95
70046;BME280;57385;41.832;23.494;2022-10-16T00:56:43;91584.88;;;8.50;69.02
70046;BME280;57385;41.832;23.494;2022-10-16T00:57:05;91592.34;;;8.52;68.89
70046;BME280;57385;41.832;23.494;2022-10-16T00:57:25;91574.03;;;8.42;69.09
70046;BME280;57385;41.832;23.494;2022-10-16T00:57:46;91576.78;;;8.40;69.19
70046;BME280;57385;41.832;23.494;2022-10-16T00:58:06;91573.63;;;8.45;69.17
70046;BME280;57385;41.832;23.494;2022-10-16T00:58:26;91579.16;;;8.42;69.25
70046;BME280;57385;41.832;23.494;2022-10-16T00:58:45;91582.88;;;8.46;69.59
70046;BME280;57385;41.832;23.494;2022-10-16T00:59:16;91574.81;;;8.42;69.49
70046;BME280;57385;41.832;23.494;2022-10-16T00:59:39;91588.22;;;8.51;69.71
70046;BME280;57385;41.832;23.494;2022-10-16T00:59:59;91580.72;;;8.43;69.26
70046;BME280;57385;41.832;23.494;2022-10-16T01:00:22;91566.19;;;8.37;69.07
70046;BME280;57385;41.832;23.494;2022-10-16T01:00:42;91589.75;;;8.45;69.09
70046;BME280;57385;41.832;23.494;2022-10-16T01:01:04;91590.53;;;8.46;69.19
70046;BME280;57385;41.832;23.494;2022-10-16T01:01:24;91588.19;;;8.44;68.94
70046;BME280;57385;41.832;23.494;2022-10-16T01:01:43;91590.16;;;8.49;69.12
70046;BME280;57385;41.832;23.494;2022-10-16T01:02:07;91581.50;;;8.37;68.69
70046;BME280;57385;41.832;23.494;2022-10-16T01:02:26;91591.34;;;8.46;68.92
70046;BME280;57385;41.832;23.494;2022-10-16T01:02:55;91591.34;;;8.46;68.98
70046;BME280;57385;41.832;23.494;2022-10-16T01:03:35;91597.81;;;8.49;69.49
70046;BME280;57385;41.832;23.494;2022-10-16T01:03:54;91586.81;;;8.42;68.95
70046;BME280;57385;41.832;23.494;2022-10-16T01:04:14;91598.81;;;8.48;69.35
70046;BME280;57385;41.832;23.494;2022-10-16T01:04:40;91599.59;;;8.48;69.21
70046;BME280;57385;41.832;23.494;2022-10-16T01:05:01;91589.56;;;8.40;69.39
70046;BME280;57385;41.832;23.494;2022-10-16T01:05:28;91585.84;;;8.36;68.98
70046;BME280;57385;41.832;23.494;2022-10-16T01:06:18;91583.09;;;8.38;69.05
70046;BME280;57385;41.832;23.494;2022-10-16T01:08:08;91602.16;;;8.42;68.93
70046;BME280;57385;41.832;23.494;2022-10-16T01:08:41;91601.19;;;8.36;69.09
70046;BME280;57385;41.832;23.494;2022-10-16T01:12:04;91610.59;;;8.42;69.07
70046;BME280;57385;41.832;23.494;2022-10-16T01:12:20;91608.66;;;8.38;69.45
70046;BME280;57385;41.832;23.494;2022-10-16T01:12:48;91608.44;;;8.39;69.45
70046;BME280;57385;41.832;23.494;2022-10-16T01:13:12;91605.09;;;8.39;68.71
70046;BME280;57385;41.832;23.494;2022-10-16T01:13:42;91611.19;;;8.38;69.24
70046;BME280;57385;41.832;23.494;2022-10-16T01:14:15;91606.09;;;8.38;69.48
70046;BME280;57385;41.832;23.494;2022-10-16T01:15:03;91612.56;;;8.40;69.37
70046;BME280;57385;41.832;23.494;2022-10-16T01:15:42;91612.56;;;8.40;69.01
70046;BME280;57385;41.832;23.494;2022-10-16T01:16:10;91607.84;;;8.37;69.12
70046;BME280;57385;41.832;23.494;2022-10-16T01:16:38;91612.19;;;8.37;69.19
70046;BME280;57385;41.832;23.494;2022-10-16T01:17:08;91619.44;;;8.40;69.13
70046;BME280;57385;41.832;23.494;2022-10-16T01:19:16;91611.00;;;8.39;69.37
70046;BME280;57385;41.832;23.494;2022-10-16T01:20:30;91613.13;;;8.36;69.69
70046;BME280;57385;41.832;23.494;2022-10-16T01:21:03;91616.06;;;8.32;69.47
70046;BME280;57385;41.832;23.494;2022-10-16T01:21:32;91615.69;;;8.36;69.45
70046;BME280;57385;41.832;23.494;2022-10-16T01:21:55;91618.44;;;8.34;69.35
70046;BME280;57385;41.832;23.494;2022-10-16T01:22:17;91611.72;;;8.33;69.43
70046;BME280;57385;41.832;23.494;2022-10-16T01:24:48;91614.13;;;8.35;69.35
70046;BME280;57385;41.832;23.494;2022-10-16T01:25:14;91611.16;;;8.31;69.01
70046;BME280;57385;41.832;23.494;2022-10-16T01:27:27;91608.59;;;8.31;69.33
70046;BME280;57385;41.832;23.494;2022-10-16T01:27:48;91609.78;;;8.28;69.45
70046;BME280;57385;41.832;23.494;2022-10-16T01:28:09;91612.91;;;8.30;69.29
70046;BME280;57385;41.832;23.494;2022-10-16T01:30:13;91605.66;;;8.27;69.52
70046;BME280;57385;41.832;23.494;2022-10-16T01:30:38;91612.31;;;8.28;69.71
70046;BME280;57385;41.832;23.494;2022-10-16T01:31:00;91608.78;;;8.29;69.04
70046;BME280;57385;41.832;23.494;2022-10-16T01:31:24;91597.94;;;8.21;69.36
70046;BME280;57385;41.832;23.494;2022-10-16T01:31:49;91603.47;;;8.24;69.41
70046;BME280;57385;41.832;23.494;2022-10-16T01:32:58;91602.06;;;8.22;69.48
70046;BME280;57385;41.832;23.494;2022-10-16T01:33:22;91610.75;;;8.27;69.46
70046;BME280;57385;41.832;23.494;2022-10-16T01:33:46;91607.81;;;8.24;69.04
70046;BME280;57385;41.832;23.494;2022-10-16T01:34:15;91602.28;;;8.20;69.22
70046;BME280;57385;41.832;23.494;2022-10-16T01:34:40;91607.81;;;8.24;69.11
70046;BME280;57385;41.832;23.494;2022-10-16T01:35:15;91599.13;;;8.18;69.15
70046;BME280;57385;41.832;23.494;2022-10-16T01:35:41;91608.59;;;8.24;69.12
70046;BME280;57385;41.832;23.494;2022-10-16T01:36:07;91598.75;;;8.21;69.15
70046;BME280;57385;41.832;23.494;2022-10-16T01:36:36;91605.44;;;8.22;69.45
70046;BME280;57385;41.832;23.494;2022-10-16T01:37:02;91609.16;;;8.20;69.53
70046;BME280;57385;41.832;23.494;2022-10-16T01:37:38;91604.84;;;8.20;69.37
70046;BME280;57385;41.832;23.494;2022-10-16T01:38:58;91609.75;;;8.22;69.68
70046;BME280;57385;41.832;23.494;2022-10-16T01:39:28;91598.34;;;8.18;69.25
70046;BME280;57385;41.832;23.494;2022-10-16T01:39:50;91611.16;;;8.24;69.81
70046;BME280;57385;41.832;23.494;2022-10-16T01:40:14;91607.78;;;8.17;69.43
70046;BME280;57385;41.832;23.494;2022-10-16T01:40:38;91613.28;;;8.21;69.27
70046;BME280;57385;41.832;23.494;2022-10-16T01:41:01;91600.31;;;8.16;69.66
70046;BME280;57385;41.832;23.494;2022-10-16T01:41:29;91600.72;;;8.13;69.68
70046;BME280;57385;41.832;23.494;2022-10-16T01:41:55;91616.63;;;8.21;69.38
70046;BME280;57385;41.832;23.494;2022-10-16T01:42:21;91606.00;;;8.18;69.44
70046;BME280;57385;41.832;23.494;2022-10-16T01:42:49;91600.50;;;8.14;69.55
70046;BME280;57385;41.832;23.494;2022-10-16T01:43:32;91619.97;;;8.22;69.65
70046;BME280;57385;41.832;23.494;2022-10-16T01:43:57;91615.84;;;8.21;69.28
70046;BME280;57385;41.832;23.494;2022-10-16T01:44:24;91611.91;;;8.18;69.30
70046;BME280;57385;41.832;23.494;2022-10-16T01:44:46;91617.81;;;8.19;69.33
70046;BME280;57385;41.832;23.494;2022-10-16T01:45:07;91612.09;;;8.17;69.58
70046;BME280;57385;41.832;23.494;2022-10-16T01:45:30;91607.38;;;8.14;69.51
70046;BME280;57385;41.832;23.494;2022-10-16T01:45:51;91607.38;;;8.14;69.17
70046;BME280;57385;41.832;23.494;2022-10-16T01:46:13;91596.97;;;8.09;68.98
70046;BME280;57385;41.832;23.494;2022-10-16T01:46:37;91617.00;;;8.18;69.25
70046;BME280;57385;41.832;23.494;2022-10-16T01:46:59;91602.88;;;8.09;69.41
70046;BME280;57385;41.832;23.494;2022-10-16T01:47:22;91606.59;;;8.13;69.43
70046;BME280;57385;41.832;23.494;2022-10-16T01:47:44;91615.44;;;8.17;69.53
70046;BME280;57385;41.832;23.494;2022-10-16T01:48:05;91617.81;;;8.19;69.04
70046;BME280;57385;41.832;23.494;2022-10-16T01:48:26;91618.00;;;8.17;69.39
70046;BME280;57385;41.832;23.494;2022-10-16T01:48:46;91618.00;;;8.17;69.64
70046;BME280;57385;41.832;23.494;2022-10-16T01:49:11;91604.63;;;8.09;69.29
70046;BME280;57385;41.832;23.494;2022-10-16T01:49:33;91613.69;;;8.11;69.38
70046;BME280;57385;41.832;23.494;2022-10-16T01:49:55;91618.00;;;8.17;69.39
70046;BME280;57385;41.832;23.494;2022-10-16T01:50:17;91598.91;;;8.07;69.18
70046;BME280;57385;41.832;23.494;2022-10-16T01:50:41;91607.78;;;8.11;69.20
70046;BME280;57385;41.832;23.494;2022-10-16T01:51:09;91609.56;;;8.10;69.06
70046;BME280;57385;41.832;23.494;2022-10-16T01:51:29;91609.34;;;8.12;69.28
70046;BME280;57385;41.832;23.494;2022-10-16T01:51:53;91595.97;;;8.03;69.04
70046;BME280;57385;41.832;23.494;2022-10-16T01:52:17;91618.97;;;8.16;69.07
70046;BME280;57385;41.832;23.494;2022-10-16T01:52:44;91615.66;;;8.16;69.34
70046;BME280;57385;41.832;23.494;2022-10-16T01:53:05;91610.53;;;8.16;69.89
70046;BME280;57385;41.832;23.494;2022-10-16T01:53:26;91616.63;;;8.15;69.48
70046;BME280;57385;41.832;23.494;2022-10-16T01:53:49;91615.44;;;8.11;69.67
70046;BME280;57385;41.832;23.494;2022-10-16T01:54:13;91610.34;;;8.11;69.30
70046;BME280;57385;41.832;23.494;2022-10-16T01:54:37;91621.16;;;8.13;69.28
70046;BME280;57385;41.832;23.494;2022-10-16T01:54:59;91616.81;;;8.13;69.43
70046;BME280;57385;41.832;23.494;2022-10-16T01:55:28;91614.03;;;8.08;69.29
70046;BME280;57385;41.832;23.494;2022-10-16T01:55:49;91615.25;;;8.12;69.28
70046;BME280;57385;41.832;23.494;2022-10-16T01:56:12;91625.47;;;8.12;69.36
70046;BME280;57385;41.832;23.494;2022-10-16T01:56:34;91618.78;;;8.11;69.15
70046;BME280;57385;41.832;23.494;2022-10-16T01:56:56;91619.78;;;8.10;69.25
70046;BME280;57385;41.832;23.494;2022-10-16T01:57:18;91604.59;;;8.02;69.34
70046;BME280;57385;41.832;23.494;2022-10-16T01:57:45;91626.44;;;8.11;69.12
70046;BME280;57385;41.832;23.494;2022-10-16T01:58:07;91614.44;;;8.05;69.30
70046;BME280;57385;41.832;23.494;2022-10-16T01:58:29;91604.41;;;7.97;69.05
70046;BME280;57385;41.832;23.494;2022-10-16T01:59:09;91612.28;;;8.02;69.38
70046;BME280;57385;41.832;23.494;2022-10-16T01:59:31;91606.38;;;8.01;69.40
70046;BME280;57385;41.832;23.494;2022-10-16T01:59:55;91626.03;;;8.08;69.27
70046;BME280;57385;41.832;23.494;2022-10-16T02:00:17;91614.03;;;8.01;68.98
70046;BME280;57385;41.832;23.494;2022-10-16T02:00:40;91607.75;;;7.97;69.40
70046;BME280;57385;41.832;23.494;2022-10-16T02:01:02;91614.44;;;8.05;69.67
70046;BME280;57385;41.832;23.494;2022-10-16T02:01:24;91625.84;;;8.09;69.34
70046;BME280;57385;41.832;23.494;2022-10-16T02:01:51;91621.31;;;8.05;69.61
70046;BME280;57385;41.832;23.494;2022-10-16T02:02:12;91620.75;;;8.09;69.50
70046;BME280;57385;41.832;23.494;2022-10-16T02:02:34;91612.66;;;7.99;69.42
70046;BME280;57385;41.832;23.494;2022-10-16T02:02:54;91615.59;;;8.02;69.74
70046;BME280;57385;41.832;23.494;2022-10-16T02:03:17;91617.97;;;8.04;69.67
70046;BME280;57385;41.832;23.494;2022-10-16T02:03:39;91611.47;;;8.01;69.80
70046;BME280;57385;41.832;23.494;2022-10-16T02:04:46;91621.31;;;8.05;69.34
70046;BME280;57385;41.832;23.494;2022-10-16T02:05:22;91626.81;;;8.08;69.67
70046;BME280;57385;41.832;23.494;2022-10-16T02:05:55;91629.00;;;8.11;69.40
70046;BME280;57385;41.832;23.494;2022-10-16T02:06:15;91617.78;;;8.06;69.47
70046;BME280;57385;41.832;23.494;2022-10-16T02:06:35;91621.13;;;8.06;69.45
70046;BME280;57385;41.832;23.494;2022-10-16T02:06:55;91625.06;;;8.09;69.51
70046;BME280;57385;41.832;23.494;2022-10-16T02:07:15;91621.31;;;8.05;69.50
70046;BME280;57385;41.832;23.494;2022-10-16T02:07:34;91617.19;;;8.03;69.81
70046;BME280;57385;41.832;23.494;2022-10-16T02:07:54;91619.53;;;8.05;69.28
70046;BME280;57385;41.832;23.494;2022-10-16T02:08:14;91624.44;;;8.07;69.40
70046;BME280;57385;41.832;23.494;2022-10-16T02:08:33;91621.69;;;8.08;69.48
70046;BME280;57385;41.832;23.494;2022-10-16T02:08:53;91611.28;;;8.03;69.64
70046;BME280;57385;41.832;23.494;2022-10-16T02:09:12;91615.22;;;8.06;69.41
70046;BME280;57385;41.832;23.494;2022-10-16T02:09:33;91610.50;;;8.02;69.35
70046;BME280;57385;41.832;23.494;2022-10-16T02:09:54;91611.47;;;8.01;69.39
70046;BME280;57385;41.832;23.494;2022-10-16T02:10:14;91606.56;;;8.00;69.68
70046;BME280;57385;41.832;23.494;2022-10-16T02:10:35;91608.72;;;8.03;69.42
70046;BME280;57385;41.832;23.494;2022-10-16T02:10:56;91608.16;;;8.01;69.68
70046;BME280;57385;41.832;23.494;2022-10-16T02:11:17;91604.22;;;7.98;69.16
70046;BME280;57385;41.832;23.494;2022-10-16T02:11:39;91602.66;;;8.04;69.44
70046;BME280;57385;41.832;23.494;2022-10-16T02:12:01;91607.34;;;8.00;69.28
70046;BME280;57385;41.832;23.494;2022-10-16T02:12:28;91609.91;;;8.00;69.83
70046;BME280;57385;41.832;23.494;2022-10-16T02:13:43;91605.00;;;7.99;69.66
70046;BME280;57385;41.832;23.494;2022-10-16T02:14:07;91612.84;;;8.04;69.01
70046;BME280;57385;41.832;23.494;2022-10-16T02:14:26;91609.13;;;8.00;69.03
70046;BME280;57385;41.832;23.494;2022-10-16T02:14:48;91598.53;;;7.96;69.65
70046;BME280;57385;41.832;23.494;2022-10-16T02:15:08;91605.00;;;7.99;69.41
70046;BME280;57385;41.832;23.494;2022-10-16T02:15:27;91595.34;;;7.94;69.67